PWSweather.com
Personal Weather Stations
Station Observations
KWAGIGHA17
Gig Harbor, WA 98332

Gig Harbor, WA 98332

Lat: 47.35323, Lon: -122.58817

Elevation: 318

Station Type: Davis VP2 Wireless

http://www.gigharborweather.com

Latest ConditionsUpdated 6:50:06 PM PDT Thursday, Mar 26, 2015
Currently Today's Max Today's Min Today's Average
Temperature 65.6°F18.7°C 69.6°F20.9°C 50.5°F10.3°C 58.1°F14.5°C
Dew Point 49.5°F9.7°C 53.4°F11.9°C 47.8°F8.8°C 50.7°F10.4°C
Winds Calm Calm 4.1 mph SW6.6 kmh SW - 0.9 mph 1.4 kmh
Wind Gusts -- 9.0 mph14.5 kmh - -
Humidity 56% 93% 47% 79%
Pressure 30.11 in1019.6 mb 30.30 in1026.1 mb 30.11 in1019.6 mb -
Precipitation - 0.01 in0.3 mm - -
Hour Temp Dew Point Humidity Winds Wind Gusts Pressure Precip Precip Rate Daily Precip Total
06:50 PM 65.6°F18.7°C 49.5°F9.7°C 56% Calm Calm -- 30.11 in1019.6 mb - 0.00 in0.0 mm 0.01 in0.3 mm
06:40 PM 66.4°F19.1°C 49.8°F9.9°C 55% Calm Calm -- 30.11 in1019.6 mb - 0.00 in0.0 mm 0.01 in0.3 mm
06:30 PM 67.3°F19.6°C 50.1°F10.1°C 54% Calm Calm 1.0 mph1.6 kmh 30.11 in1019.6 mb - 0.00 in0.0 mm 0.01 in0.3 mm
06:20 PM 67.9°F19.9°C 49.1°F9.5°C 51% 1.6 mph SW2.6 kmh SW 5.0 mph8.0 kmh 30.11 in1019.6 mb - 0.00 in0.0 mm 0.01 in0.3 mm
06:10 PM 68.1°F20.1°C 48.2°F9.0°C 49% 2.2 mph WSW3.5 kmh WSW 5.0 mph8.0 kmh 30.11 in1019.6 mb - 0.00 in0.0 mm 0.01 in0.3 mm
06:00 PM 68.4°F20.2°C 48.0°F8.9°C 48% 1.6 mph SW2.6 kmh SW 5.0 mph8.0 kmh 30.12 in1020.0 mb - 0.00 in0.0 mm 0.01 in0.3 mm
05:50 PM 68.9°F20.5°C 47.8°F8.8°C 47% 3.8 mph SW6.1 kmh SW 7.0 mph11.3 kmh 30.12 in1020.0 mb - 0.00 in0.0 mm 0.01 in0.3 mm
05:40 PM 68.9°F20.5°C 49.5°F9.7°C 50% Calm Calm -- 30.12 in1020.0 mb - 0.00 in0.0 mm 0.01 in0.3 mm
05:30 PM 68.9°F20.5°C 50.0°F10.0°C 51% 2.7 mph WSW4.3 kmh WSW 4.0 mph6.4 kmh 30.13 in1020.3 mb - 0.00 in0.0 mm 0.01 in0.3 mm
05:20 PM 69.5°F20.8°C 49.5°F9.7°C 49% 1.4 mph WSW2.3 kmh WSW 1.0 mph1.6 kmh 30.14 in1020.7 mb - 0.00 in0.0 mm 0.01 in0.3 mm
05:10 PM 69.3°F20.7°C 48.8°F9.3°C 48% 1.1 mph WSW1.8 kmh WSW 1.0 mph1.6 kmh 30.14 in1020.7 mb - 0.00 in0.0 mm 0.01 in0.3 mm
05:00 PM 69.6°F20.9°C 49.1°F9.5°C 48% 0.5 mph W0.8 kmh W 3.0 mph4.8 kmh 30.14 in1020.7 mb - 0.00 in0.0 mm 0.01 in0.3 mm
04:50 PM 69.2°F20.7°C 50.3°F10.2°C 51% 3.2 mph SW5.1 kmh SW 5.0 mph8.0 kmh 30.14 in1020.7 mb - 0.00 in0.0 mm 0.01 in0.3 mm
04:40 PM 69.3°F20.7°C 51.9°F11.1°C 54% 2.6 mph S4.2 kmh S 6.0 mph9.7 kmh 30.14 in1020.7 mb - 0.00 in0.0 mm 0.01 in0.3 mm
04:30 PM 69.3°F20.7°C 51.9°F11.1°C 54% 2.6 mph WSW4.2 kmh WSW 4.0 mph6.4 kmh 30.15 in1021.0 mb - 0.00 in0.0 mm 0.01 in0.3 mm
04:20 PM 69.4°F20.8°C 51.5°F10.8°C 53% 4.1 mph SW6.6 kmh SW 9.0 mph14.5 kmh 30.16 in1021.3 mb - 0.00 in0.0 mm 0.01 in0.3 mm
04:10 PM 69.5°F20.8°C 50.1°F10.1°C 50% 2.3 mph SW3.7 kmh SW 3.0 mph4.8 kmh 30.16 in1021.3 mb - 0.00 in0.0 mm 0.01 in0.3 mm
04:00 PM 69.2°F20.7°C 51.3°F10.7°C 53% 2.2 mph WSW3.5 kmh WSW 6.0 mph9.7 kmh 30.16 in1021.3 mb - 0.00 in0.0 mm 0.01 in0.3 mm
03:50 PM 68.8°F20.4°C 51.0°F10.6°C 53% 0.3 mph SW0.5 kmh SW -- 30.17 in1021.7 mb - 0.00 in0.0 mm 0.01 in0.3 mm
03:40 PM 68.4°F20.2°C 50.6°F10.3°C 53% 0.8 mph SW1.3 kmh SW 2.0 mph3.2 kmh 30.17 in1021.7 mb - 0.00 in0.0 mm 0.01 in0.3 mm
03:30 PM 68.5°F20.3°C 51.7°F10.9°C 55% 0.6 mph SW1.0 kmh SW 2.0 mph3.2 kmh 30.17 in1021.7 mb - 0.00 in0.0 mm 0.01 in0.3 mm
03:20 PM 67.8°F19.9°C 52.5°F11.4°C 58% 1.8 mph S2.9 kmh S 6.0 mph9.7 kmh 30.17 in1021.7 mb - 0.00 in0.0 mm 0.01 in0.3 mm
03:10 PM 67.5°F19.7°C 51.2°F10.7°C 56% 3.3 mph S5.3 kmh S 7.0 mph11.3 kmh 30.17 in1021.7 mb - 0.00 in0.0 mm 0.01 in0.3 mm
03:00 PM 67.2°F19.6°C 51.0°F10.6°C 56% 0.1 mph S0.2 kmh S 1.0 mph1.6 kmh 30.18 in1022.0 mb - 0.00 in0.0 mm 0.01 in0.3 mm
02:50 PM 67.0°F19.4°C 52.7°F11.5°C 60% 0.8 mph SW1.3 kmh SW 5.0 mph8.0 kmh 30.18 in1022.0 mb - 0.00 in0.0 mm 0.01 in0.3 mm
02:40 PM 67.4°F19.7°C 52.6°F11.4°C 59% 2.9 mph WSW4.7 kmh WSW 4.0 mph6.4 kmh 30.19 in1022.4 mb - 0.00 in0.0 mm 0.01 in0.3 mm
02:30 PM 66.7°F19.3°C 52.3°F11.3°C 60% 1.5 mph W2.4 kmh W 5.0 mph8.0 kmh 30.20 in1022.7 mb - 0.01 in0.3 mm 0.01 in0.3 mm
02:20 PM 66.2°F19.0°C 51.0°F10.6°C 58% 1.4 mph SW2.3 kmh SW 4.0 mph6.4 kmh 30.20 in1022.7 mb - 0.00 in0.0 mm 0.00 in0.0 mm
02:10 PM 65.9°F18.8°C 52.5°F11.4°C 62% 0.1 mph SW0.2 kmh SW 1.0 mph1.6 kmh 30.20 in1022.7 mb - 0.00 in0.0 mm 0.00 in0.0 mm
02:00 PM 65.7°F18.7°C 52.7°F11.5°C 63% 3.1 mph S5.0 kmh S 5.0 mph8.0 kmh 30.21 in1023.0 mb - 0.00 in0.0 mm 0.00 in0.0 mm
01:50 PM 65.9°F18.8°C 53.4°F11.9°C 64% 1.4 mph WSW2.3 kmh WSW 3.0 mph4.8 kmh 30.21 in1023.0 mb - 0.00 in0.0 mm 0.00 in0.0 mm
01:40 PM 65.2°F18.4°C 52.2°F11.2°C 63% 3.3 mph SW5.3 kmh SW 5.0 mph8.0 kmh 30.21 in1023.0 mb - 0.00 in0.0 mm 0.00 in0.0 mm
01:30 PM 64.4°F18.0°C 52.4°F11.3°C 65% 2.8 mph WSW4.5 kmh WSW 5.0 mph8.0 kmh 30.22 in1023.4 mb - 0.00 in0.0 mm 0.00 in0.0 mm
01:20 PM 64.0°F17.8°C 52.4°F11.3°C 66% 0.4 mph S0.6 kmh S -- 30.21 in1023.0 mb - 0.00 in0.0 mm 0.00 in0.0 mm
01:10 PM 63.9°F17.7°C 53.1°F11.7°C 68% 1.0 mph S1.6 kmh S 4.0 mph6.4 kmh 30.22 in1023.4 mb - 0.00 in0.0 mm 0.00 in0.0 mm
01:00 PM 63.9°F17.7°C 53.1°F11.7°C 68% 2.1 mph S3.4 kmh S 4.0 mph6.4 kmh 30.22 in1023.4 mb - 0.00 in0.0 mm 0.00 in0.0 mm
12:50 PM 63.5°F17.5°C 52.3°F11.3°C 67% 1.4 mph SW2.3 kmh SW 3.0 mph4.8 kmh 30.22 in1023.4 mb - 0.00 in0.0 mm 0.00 in0.0 mm
12:40 PM 62.9°F17.2°C 51.0°F10.6°C 65% 2.0 mph WSW3.2 kmh WSW 4.0 mph6.4 kmh 30.23 in1023.7 mb - 0.00 in0.0 mm 0.00 in0.0 mm
12:30 PM 61.7°F16.5°C 50.3°F10.2°C 66% 1.0 mph WSW1.6 kmh WSW 2.0 mph3.2 kmh 30.23 in1023.7 mb - 0.00 in0.0 mm 0.00 in0.0 mm
12:20 PM 61.1°F16.2°C 52.0°F11.1°C 72% 3.2 mph WSW5.1 kmh WSW 6.0 mph9.7 kmh 30.24 in1024.0 mb - 0.00 in0.0 mm 0.00 in0.0 mm
12:10 PM 60.6°F15.9°C 52.6°F11.4°C 75% 1.3 mph NNW2.1 kmh NNW 3.0 mph4.8 kmh 30.24 in1024.0 mb - 0.00 in0.0 mm 0.00 in0.0 mm
12:00 PM 59.7°F15.4°C 51.0°F10.6°C 73% 2.4 mph WSW3.9 kmh WSW 6.0 mph9.7 kmh 30.24 in1024.0 mb - 0.00 in0.0 mm 0.00 in0.0 mm
11:50 AM 59.2°F15.1°C 53.1°F11.7°C 80% 1.7 mph W2.7 kmh W 4.0 mph6.4 kmh 30.25 in1024.4 mb - 0.00 in0.0 mm 0.00 in0.0 mm
11:40 AM 58.6°F14.8°C 52.8°F11.6°C 81% 2.6 mph SW4.2 kmh SW 6.0 mph9.7 kmh 30.25 in1024.4 mb - 0.00 in0.0 mm 0.00 in0.0 mm
11:30 AM 58.2°F14.6°C 52.4°F11.3°C 81% 0.1 mph W0.2 kmh W 1.0 mph1.6 kmh 30.25 in1024.4 mb - 0.00 in0.0 mm 0.00 in0.0 mm
11:20 AM 57.9°F14.4°C 52.8°F11.6°C 83% Calm Calm -- 30.25 in1024.4 mb - 0.00 in0.0 mm 0.00 in0.0 mm
11:10 AM 57.6°F14.2°C 52.8°F11.6°C 84% 0.8 mph NW1.3 kmh NW 3.0 mph4.8 kmh 30.25 in1024.4 mb - 0.00 in0.0 mm 0.00 in0.0 mm
11:00 AM 57.1°F13.9°C 53.0°F11.7°C 86% 2.9 mph N4.7 kmh N 5.0 mph8.0 kmh 30.26 in1024.7 mb - 0.00 in0.0 mm 0.00 in0.0 mm
10:50 AM 56.5°F13.6°C 52.7°F11.5°C 87% 3.0 mph WSW4.8 kmh WSW 6.0 mph9.7 kmh 30.26 in1024.7 mb - 0.00 in0.0 mm 0.00 in0.0 mm
10:40 AM 55.8°F13.2°C 52.6°F11.4°C 89% 1.0 mph WSW1.6 kmh WSW 2.0 mph3.2 kmh 30.25 in1024.4 mb - 0.00 in0.0 mm 0.00 in0.0 mm
10:30 AM 55.3°F12.9°C 52.7°F11.5°C 91% 1.3 mph WSW2.1 kmh WSW 2.0 mph3.2 kmh 30.25 in1024.4 mb - 0.00 in0.0 mm 0.00 in0.0 mm
10:20 AM 54.9°F12.7°C 52.6°F11.4°C 92% Calm Calm 1.0 mph1.6 kmh 30.25 in1024.4 mb - 0.00 in0.0 mm 0.00 in0.0 mm
10:10 AM 54.5°F12.5°C 52.2°F11.2°C 92% Calm Calm 1.0 mph1.6 kmh 30.25 in1024.4 mb - 0.00 in0.0 mm 0.00 in0.0 mm
10:00 AM 54.1°F12.3°C 51.8°F11.0°C 92% 0.5 mph WSW0.8 kmh WSW -- 30.25 in1024.4 mb - 0.00 in0.0 mm 0.00 in0.0 mm
09:50 AM 53.8°F12.1°C 51.9°F11.1°C 93% Calm Calm -- 30.25 in1024.4 mb - 0.00 in0.0 mm 0.00 in0.0 mm
09:40 AM 53.5°F11.9°C 51.5°F10.8°C 93% 0.7 mph WSW1.1 kmh WSW 3.0 mph4.8 kmh 30.26 in1024.7 mb - 0.00 in0.0 mm 0.00 in0.0 mm
09:30 AM 53.3°F11.8°C 51.3°F10.7°C 93% Calm Calm -- 30.25 in1024.4 mb - 0.00 in0.0 mm 0.00 in0.0 mm
09:20 AM 53.0°F11.7°C 51.0°F10.6°C 93% Calm Calm -- 30.25 in1024.4 mb - 0.00 in0.0 mm 0.00 in0.0 mm
09:10 AM 52.7°F11.5°C 50.8°F10.4°C 93% Calm Calm -- 30.25 in1024.4 mb - 0.00 in0.0 mm 0.00 in0.0 mm
09:00 AM 52.5°F11.4°C 50.5°F10.3°C 93% Calm Calm -- 30.25 in1024.4 mb - 0.00 in0.0 mm 0.00 in0.0 mm
08:50 AM 52.3°F11.3°C 50.0°F10.0°C 92% Calm Calm -- 30.25 in1024.4 mb - 0.00 in0.0 mm 0.00 in0.0 mm
08:40 AM 51.8°F11.0°C 49.6°F9.8°C 92% Calm Calm -- 30.25 in1024.4 mb - 0.00 in0.0 mm 0.00 in0.0 mm
08:30 AM 51.3°F10.7°C 49.1°F9.5°C 92% Calm Calm -- 30.25 in1024.4 mb - 0.00 in0.0 mm 0.00 in0.0 mm
08:20 AM 51.0°F10.6°C 48.7°F9.3°C 92% Calm Calm -- 30.25 in1024.4 mb - 0.00 in0.0 mm 0.00 in0.0 mm
08:10 AM 50.7°F10.4°C 48.5°F9.2°C 92% Calm Calm -- 30.26 in1024.7 mb - 0.00 in0.0 mm 0.00 in0.0 mm
08:00 AM 50.5°F10.3°C 48.3°F9.1°C 92% Calm Calm -- 30.26 in1024.7 mb - 0.00 in0.0 mm 0.00 in0.0 mm
07:50 AM 50.5°F10.3°C 48.3°F9.1°C 92% Calm Calm -- 30.26 in1024.7 mb - 0.00 in0.0 mm 0.00 in0.0 mm
07:40 AM 50.6°F10.3°C 48.4°F9.1°C 92% Calm Calm -- 30.27 in1025.1 mb - 0.00 in0.0 mm 0.00 in0.0 mm
07:30 AM 50.7°F10.4°C 48.5°F9.2°C 92% Calm Calm -- 30.26 in1024.7 mb - 0.00 in0.0 mm 0.00 in0.0 mm
07:20 AM 50.7°F10.4°C 48.5°F9.2°C 92% Calm Calm -- 30.26 in1024.7 mb - 0.00 in0.0 mm 0.00 in0.0 mm
07:10 AM 50.7°F10.4°C 48.5°F9.2°C 92% Calm Calm -- 30.26 in1024.7 mb - 0.00 in0.0 mm 0.00 in0.0 mm
07:00 AM 50.7°F10.4°C 48.5°F9.2°C 92% Calm Calm -- 30.26 in1024.7 mb - 0.00 in0.0 mm 0.00 in0.0 mm
06:50 AM 50.8°F10.4°C 48.5°F9.2°C 92% Calm Calm -- 30.26 in1024.7 mb - 0.00 in0.0 mm 0.00 in0.0 mm
06:40 AM 50.8°F10.4°C 48.3°F9.1°C 91% Calm Calm -- 30.27 in1025.1 mb - 0.00 in0.0 mm 0.00 in0.0 mm
06:30 AM 51.0°F10.6°C 48.7°F9.3°C 92% Calm Calm -- 30.27 in1025.1 mb - 0.00 in0.0 mm 0.00 in0.0 mm
06:20 AM 51.2°F10.7°C 48.9°F9.4°C 92% Calm Calm -- 30.27 in1025.1 mb - 0.00 in0.0 mm 0.00 in0.0 mm
06:10 AM 51.3°F10.7°C 49.1°F9.5°C 92% Calm Calm -- 30.27 in1025.1 mb - 0.00 in0.0 mm 0.00 in0.0 mm
06:00 AM 51.4°F10.8°C 48.9°F9.4°C 91% Calm Calm -- 30.27 in1025.1 mb - 0.00 in0.0 mm 0.00 in0.0 mm
05:50 AM 51.6°F10.9°C 49.4°F9.7°C 92% Calm Calm -- 30.27 in1025.1 mb - 0.00 in0.0 mm 0.00 in0.0 mm
05:40 AM 51.7°F10.9°C 49.5°F9.7°C 92% Calm Calm -- 30.27 in1025.1 mb - 0.00 in0.0 mm 0.00 in0.0 mm
05:30 AM 51.8°F11.0°C 49.6°F9.8°C 92% Calm Calm -- 30.27 in1025.1 mb - 0.00 in0.0 mm 0.00 in0.0 mm
05:20 AM 51.9°F11.1°C 49.6°F9.8°C 92% Calm Calm -- 30.27 in1025.1 mb - 0.00 in0.0 mm 0.00 in0.0 mm
05:10 AM 52.0°F11.1°C 49.7°F9.8°C 92% Calm Calm -- 30.27 in1025.1 mb - 0.00 in0.0 mm 0.00 in0.0 mm
05:00 AM 52.1°F11.2°C 49.8°F9.9°C 92% Calm Calm -- 30.27 in1025.1 mb - 0.00 in0.0 mm 0.00 in0.0 mm
04:50 AM 52.2°F11.2°C 49.9°F9.9°C 92% Calm Calm -- 30.27 in1025.1 mb - 0.00 in0.0 mm 0.00 in0.0 mm
04:40 AM 52.3°F11.3°C 50.0°F10.0°C 92% Calm Calm -- 30.27 in1025.1 mb - 0.00 in0.0 mm 0.00 in0.0 mm
04:30 AM 52.3°F11.3°C 50.0°F10.0°C 92% Calm Calm -- 30.27 in1025.1 mb - 0.00 in0.0 mm 0.00 in0.0 mm
04:20 AM 52.3°F11.3°C 50.1°F10.1°C 92% Calm Calm 1.0 mph1.6 kmh 30.27 in1025.1 mb - 0.00 in0.0 mm 0.00 in0.0 mm
04:10 AM 52.3°F11.3°C 50.0°F10.0°C 92% Calm Calm 2.0 mph3.2 kmh 30.28 in1025.4 mb - 0.00 in0.0 mm 0.00 in0.0 mm
04:00 AM 52.3°F11.3°C 50.0°F10.0°C 92% 0.8 mph WSW1.3 kmh WSW -- 30.28 in1025.4 mb - 0.00 in0.0 mm 0.00 in0.0 mm
03:50 AM 52.3°F11.3°C 50.0°F10.0°C 92% Calm Calm 1.0 mph1.6 kmh 30.28 in1025.4 mb - 0.00 in0.0 mm 0.00 in0.0 mm
03:40 AM 52.4°F11.3°C 50.1°F10.1°C 92% Calm Calm 1.0 mph1.6 kmh 30.28 in1025.4 mb - 0.00 in0.0 mm 0.00 in0.0 mm
03:30 AM 52.6°F11.4°C 50.0°F10.0°C 91% Calm Calm 2.0 mph3.2 kmh 30.29 in1025.7 mb - 0.00 in0.0 mm 0.00 in0.0 mm
03:20 AM 52.7°F11.5°C 50.4°F10.2°C 92% 0.2 mph WSW0.3 kmh WSW 3.0 mph4.8 kmh 30.29 in1025.7 mb - 0.00 in0.0 mm 0.00 in0.0 mm
03:10 AM 52.8°F11.6°C 50.5°F10.3°C 92% Calm Calm -- 30.29 in1025.7 mb - 0.00 in0.0 mm 0.00 in0.0 mm
03:00 AM 52.9°F11.6°C 50.6°F10.3°C 92% 1.4 mph WSW2.3 kmh WSW 4.0 mph6.4 kmh 30.29 in1025.7 mb - 0.00 in0.0 mm 0.00 in0.0 mm
02:50 AM 52.9°F11.6°C 50.7°F10.4°C 92% Calm Calm -- 30.29 in1025.7 mb - 0.00 in0.0 mm 0.00 in0.0 mm
02:40 AM 53.0°F11.7°C 50.7°F10.4°C 92% Calm Calm 1.0 mph1.6 kmh 30.29 in1025.7 mb - 0.00 in0.0 mm 0.00 in0.0 mm
02:30 AM 53.1°F11.7°C 50.8°F10.4°C 92% 0.1 mph WSW0.2 kmh WSW 1.0 mph1.6 kmh 30.29 in1025.7 mb - 0.00 in0.0 mm 0.00 in0.0 mm
02:20 AM 53.2°F11.8°C 50.9°F10.5°C 92% 2.9 mph WSW4.7 kmh WSW 5.0 mph8.0 kmh 30.29 in1025.7 mb - 0.00 in0.0 mm 0.00 in0.0 mm
02:10 AM 53.3°F11.8°C 51.1°F10.6°C 92% Calm Calm -- 30.29 in1025.7 mb - 0.00 in0.0 mm 0.00 in0.0 mm
02:00 AM 53.5°F11.9°C 51.2°F10.7°C 92% 0.2 mph WSW0.3 kmh WSW 2.0 mph3.2 kmh 30.29 in1025.7 mb - 0.00 in0.0 mm 0.00 in0.0 mm
01:50 AM 53.6°F12.0°C 51.3°F10.7°C 92% Calm Calm -- 30.29 in1025.7 mb - 0.00 in0.0 mm 0.00 in0.0 mm
01:40 AM 53.6°F12.0°C 51.3°F10.7°C 92% 0.1 mph WSW0.2 kmh WSW 1.0 mph1.6 kmh 30.29 in1025.7 mb - 0.00 in0.0 mm 0.00 in0.0 mm
01:30 AM 53.7°F12.1°C 51.4°F10.8°C 92% 0.5 mph WSW0.8 kmh WSW 3.0 mph4.8 kmh 30.29 in1025.7 mb - 0.00 in0.0 mm 0.00 in0.0 mm
01:20 AM 53.7°F12.1°C 51.4°F10.8°C 92% 2.6 mph WSW4.2 kmh WSW 3.0 mph4.8 kmh 30.29 in1025.7 mb - 0.00 in0.0 mm 0.00 in0.0 mm
01:10 AM 53.8°F12.1°C 51.5°F10.8°C 92% 0.6 mph WSW1.0 kmh WSW 4.0 mph6.4 kmh 30.29 in1025.7 mb - 0.00 in0.0 mm 0.00 in0.0 mm
01:00 AM 53.8°F12.1°C 51.5°F10.8°C 92% 3.0 mph WSW4.8 kmh WSW 5.0 mph8.0 kmh 30.30 in1026.1 mb - 0.00 in0.0 mm 0.00 in0.0 mm
12:50 AM 53.8°F12.1°C 51.5°F10.8°C 92% 0.4 mph WNW0.6 kmh WNW 5.0 mph8.0 kmh 30.30 in1026.1 mb - 0.00 in0.0 mm 0.00 in0.0 mm
12:40 AM 53.8°F12.1°C 51.5°F10.8°C 92% 1.0 mph WSW1.6 kmh WSW 3.0 mph4.8 kmh 30.30 in1026.1 mb - 0.00 in0.0 mm 0.00 in0.0 mm
12:30 AM 53.8°F12.1°C 51.5°F10.8°C 92% 0.9 mph SW1.4 kmh SW 3.0 mph4.8 kmh 30.30 in1026.1 mb - 0.00 in0.0 mm 0.00 in0.0 mm
12:20 AM 53.8°F12.1°C 51.5°F10.8°C 92% 0.7 mph SW1.1 kmh SW 3.0 mph4.8 kmh 30.30 in1026.1 mb - 0.00 in0.0 mm 0.00 in0.0 mm
12:10 AM 53.9°F12.2°C 51.3°F10.7°C 91% 1.2 mph SW1.9 kmh SW 2.0 mph3.2 kmh 30.30 in1026.1 mb - 0.00 in0.0 mm 0.00 in0.0 mm
12:00 AM 53.9°F12.2°C 51.3°F10.7°C 91% 0.1 mph WSW0.2 kmh WSW 3.0 mph4.8 kmh 30.30 in1026.1 mb - 0.00 in0.0 mm 0.00 in0.0 mm